sensor_id;sensor_type;location;lat;lon;timestamp;pressure;altitude;pressure_sealevel;temperature;humidity
21433;BME280;18592;49.708;10.900;2022-08-19T00:00:22;97973.69;;;26.84;47.66
21433;BME280;18592;49.708;10.900;2022-08-19T00:02:23;97978.84;;;26.82;48.00
21433;BME280;18592;49.708;10.900;2022-08-19T00:04:32;97983.19;;;26.80;48.36
21433;BME280;18592;49.708;10.900;2022-08-19T00:06:38;97986.72;;;26.77;47.97
21433;BME280;18592;49.708;10.900;2022-08-19T00:08:40;97993.84;;;26.74;48.12
21433;BME280;18592;49.708;10.900;2022-08-19T00:10:43;97992.59;;;26.72;47.92
21433;BME280;18592;49.708;10.900;2022-08-19T00:12:45;97984.97;;;26.69;48.05
21433;BME280;18592;49.708;10.900;2022-08-19T00:14:47;97986.88;;;26.65;48.48
21433;BME280;18592;49.708;10.900;2022-08-19T00:16:49;97989.22;;;26.63;48.02
21433;BME280;18592;49.708;10.900;2022-08-19T00:18:53;97980.03;;;26.62;48.17
21433;BME280;18592;49.708;10.900;2022-08-19T00:20:56;97978.78;;;26.60;48.62
21433;BME280;18592;49.708;10.900;2022-08-19T00:22:58;97971.94;;;26.57;48.55
21433;BME280;18592;49.708;10.900;2022-08-19T00:25:00;97960.31;;;26.55;48.69
21433;BME280;18592;49.708;10.900;2022-08-19T00:27:02;97957.91;;;26.54;48.53
21433;BME280;18592;49.708;10.900;2022-08-19T00:29:24;97954.22;;;26.49;49.08
21433;BME280;18592;49.708;10.900;2022-08-19T00:31:27;97951.38;;;26.46;48.64
21433;BME280;18592;49.708;10.900;2022-08-19T00:33:29;97950.91;;;26.44;48.88
21433;BME280;18592;49.708;10.900;2022-08-19T00:35:34;97959.69;;;26.42;48.70
21433;BME280;18592;49.708;10.900;2022-08-19T00:37:35;97962.84;;;26.41;49.16
21433;BME280;18592;49.708;10.900;2022-08-19T00:39:37;97962.41;;;26.39;48.80
21433;BME280;18592;49.708;10.900;2022-08-19T00:41:40;97956.75;;;26.35;49.30
21433;BME280;18592;49.708;10.900;2022-08-19T00:43:42;97958.72;;;26.35;49.40
21433;BME280;18592;49.708;10.900;2022-08-19T00:45:44;97946.31;;;26.32;48.85
21433;BME280;18592;49.708;10.900;2022-08-19T00:47:46;97952.28;;;26.31;49.30
21433;BME280;18592;49.708;10.900;2022-08-19T00:49:50;97953.44;;;26.30;49.07
21433;BME280;18592;49.708;10.900;2022-08-19T00:51:59;97959.75;;;26.27;49.50
21433;BME280;18592;49.708;10.900;2022-08-19T00:54:02;97966.06;;;26.24;49.26
21433;BME280;18592;49.708;10.900;2022-08-19T00:56:04;97971.22;;;26.22;49.55
21433;BME280;18592;49.708;10.900;2022-08-19T00:58:12;97967.19;;;26.19;49.51
21433;BME280;18592;49.708;10.900;2022-08-19T01:00:17;97978.75;;;26.18;49.10
21433;BME280;18592;49.708;10.900;2022-08-19T01:02:19;97971.09;;;26.15;49.17
21433;BME280;18592;49.708;10.900;2022-08-19T01:04:21;97981.84;;;26.13;49.54
21433;BME280;18592;49.708;10.900;2022-08-19T01:06:23;97986.94;;;26.11;49.53
21433;BME280;18592;49.708;10.900;2022-08-19T01:08:24;97997.66;;;26.09;49.77
21433;BME280;18592;49.708;10.900;2022-08-19T01:10:35;97996.06;;;26.08;49.60
21433;BME280;18592;49.708;10.900;2022-08-19T01:12:39;97999.22;;;26.06;49.84
21433;BME280;18592;49.708;10.900;2022-08-19T01:14:41;97997.94;;;26.04;49.43
21433;BME280;18592;49.708;10.900;2022-08-19T01:16:43;97990.31;;;26.01;49.72
21433;BME280;18592;49.708;10.900;2022-08-19T01:18:47;97987.88;;;25.99;49.86
21433;BME280;18592;49.708;10.900;2022-08-19T01:20:48;97996.25;;;25.99;49.55
21433;BME280;18592;49.708;10.900;2022-08-19T01:22:56;97987.44;;;25.97;49.71
21433;BME280;18592;49.708;10.900;2022-08-19T01:24:58;97991.41;;;25.96;49.83
21433;BME280;18592;49.708;10.900;2022-08-19T01:27:04;97987.34;;;25.94;49.92
21433;BME280;18592;49.708;10.900;2022-08-19T01:29:11;97998.91;;;25.92;49.76
21433;BME280;18592;49.708;10.900;2022-08-19T01:31:19;98006.03;;;25.90;49.81
21433;BME280;18592;49.708;10.900;2022-08-19T01:33:28;98007.19;;;25.88;50.28
21433;BME280;18592;49.708;10.900;2022-08-19T01:35:32;98018.75;;;25.87;49.94
21433;BME280;18592;49.708;10.900;2022-08-19T01:37:49;98011.91;;;25.84;50.13
21433;BME280;18592;49.708;10.900;2022-08-19T01:39:52;98017.47;;;25.84;50.12
21433;BME280;18592;49.708;10.900;2022-08-19T01:41:54;98009.09;;;25.84;50.14
21433;BME280;18592;49.708;10.900;2022-08-19T01:43:56;98005.88;;;25.82;50.40
21433;BME280;18592;49.708;10.900;2022-08-19T01:46:19;98003.44;;;25.81;49.97
21433;BME280;18592;49.708;10.900;2022-08-19T01:48:25;98014.16;;;25.79;50.27
21433;BME280;18592;49.708;10.900;2022-08-19T01:50:27;98018.94;;;25.78;50.42
21433;BME280;18592;49.708;10.900;2022-08-19T01:52:29;98021.72;;;25.78;50.60
21433;BME280;18592;49.708;10.900;2022-08-19T01:54:31;98020.13;;;25.77;50.48
21433;BME280;18592;49.708;10.900;2022-08-19T01:56:33;98022.44;;;25.75;50.31
21433;BME280;18592;49.708;10.900;2022-08-19T01:58:39;98028.84;;;25.76;50.35
21433;BME280;18592;49.708;10.900;2022-08-19T02:00:42;98026.44;;;25.74;50.30
21433;BME280;18592;49.708;10.900;2022-08-19T02:02:44;98035.97;;;25.73;50.44
21433;BME280;18592;49.708;10.900;2022-08-19T02:04:46;98024.34;;;25.71;50.46
21433;BME280;18592;49.708;10.900;2022-08-19T02:06:49;98034.38;;;25.72;50.79
21433;BME280;18592;49.708;10.900;2022-08-19T02:08:50;98044.72;;;25.72;50.34
21433;BME280;18592;49.708;10.900;2022-08-19T02:10:57;98040.28;;;25.71;50.45
21433;BME280;18592;49.708;10.900;2022-08-19T02:12:59;98030.31;;;25.70;50.66
21433;BME280;18592;49.708;10.900;2022-08-19T02:15:01;98027.88;;;25.68;50.55
21433;BME280;18592;49.708;10.900;2022-08-19T02:17:03;98015.88;;;25.68;50.35
21433;BME280;18592;49.708;10.900;2022-08-19T02:19:05;98016.25;;;25.66;50.53
21433;BME280;18592;49.708;10.900;2022-08-19T02:21:07;98005.09;;;25.66;50.55
21433;BME280;18592;49.708;10.900;2022-08-19T02:23:11;98011.03;;;25.65;50.76
21433;BME280;18592;49.708;10.900;2022-08-19T02:25:16;98017.41;;;25.65;50.62
21433;BME280;18592;49.708;10.900;2022-08-19T02:27:18;98017.41;;;25.65;50.42
21433;BME280;18592;49.708;10.900;2022-08-19T02:29:19;98024.53;;;25.63;50.44
21433;BME280;18592;49.708;10.900;2022-08-19T02:31:25;98039.31;;;25.63;51.11
21433;BME280;18592;49.708;10.900;2022-08-19T02:33:27;98042.09;;;25.63;50.81
21433;BME280;18592;49.708;10.900;2022-08-19T02:35:28;98040.50;;;25.62;50.79
21433;BME280;18592;49.708;10.900;2022-08-19T02:37:30;98046.09;;;25.62;50.50
21433;BME280;18592;49.708;10.900;2022-08-19T02:39:50;98056.78;;;25.60;50.80
21433;BME280;18592;49.708;10.900;2022-08-19T02:41:52;98051.19;;;25.60;50.64
21433;BME280;18592;49.708;10.900;2022-08-19T02:43:55;98052.38;;;25.59;50.60
21433;BME280;18592;49.708;10.900;2022-08-19T02:46:21;98060.75;;;25.59;50.63
21433;BME280;18592;49.708;10.900;2022-08-19T02:48:25;98057.16;;;25.59;50.70
21433;BME280;18592;49.708;10.900;2022-08-19T02:50:27;98052.38;;;25.59;50.79
21433;BME280;18592;49.708;10.900;2022-08-19T02:52:28;98060.31;;;25.57;50.85
21433;BME280;18592;49.708;10.900;2022-08-19T02:54:30;98071.50;;;25.57;50.62
21433;BME280;18592;49.708;10.900;2022-08-19T02:56:35;98074.28;;;25.57;50.92
21433;BME280;18592;49.708;10.900;2022-08-19T02:58:37;98076.59;;;25.55;50.57
21433;BME280;18592;49.708;10.900;2022-08-19T03:00:47;98073.81;;;25.55;51.01
21433;BME280;18592;49.708;10.900;2022-08-19T03:02:50;98076.59;;;25.55;50.56
21433;BME280;18592;49.708;10.900;2022-08-19T03:04:52;98077.78;;;25.54;50.93
21433;BME280;18592;49.708;10.900;2022-08-19T03:06:53;98068.59;;;25.54;50.84
21433;BME280;18592;49.708;10.900;2022-08-19T03:08:59;98063.81;;;25.54;50.40
21433;BME280;18592;49.708;10.900;2022-08-19T03:11:01;98072.53;;;25.53;50.88
21433;BME280;18592;49.708;10.900;2022-08-19T03:13:03;98063.38;;;25.52;51.08
21433;BME280;18592;49.708;10.900;2022-08-19T03:15:06;98074.56;;;25.52;50.71
21433;BME280;18592;49.708;10.900;2022-08-19T03:17:09;98077.34;;;25.52;50.76
21433;BME280;18592;49.708;10.900;2022-08-19T03:19:10;98079.31;;;25.52;50.75
21433;BME280;18592;49.708;10.900;2022-08-19T03:21:22;98064.91;;;25.50;50.94
21433;BME280;18592;49.708;10.900;2022-08-19T03:23:25;98056.16;;;25.51;50.80
21433;BME280;18592;49.708;10.900;2022-08-19T03:25:26;98052.94;;;25.49;51.01
21433;BME280;18592;49.708;10.900;2022-08-19T03:27:28;98044.19;;;25.51;50.96
21433;BME280;18592;49.708;10.900;2022-08-19T03:29:37;98047.34;;;25.49;51.17
21433;BME280;18592;49.708;10.900;2022-08-19T03:31:44;98051.31;;;25.48;50.91
21433;BME280;18592;49.708;10.900;2022-08-19T03:33:53;98046.91;;;25.47;51.20
21433;BME280;18592;49.708;10.900;2022-08-19T03:36:07;98049.69;;;25.47;51.18
21433;BME280;18592;49.708;10.900;2022-08-19T03:38:12;98053.66;;;25.46;51.29
21433;BME280;18592;49.708;10.900;2022-08-19T03:40:14;98045.28;;;25.46;51.50
21433;BME280;18592;49.708;10.900;2022-08-19T03:42:17;98042.47;;;25.46;51.43
21433;BME280;18592;49.708;10.900;2022-08-19T03:44:38;98036.09;;;25.46;51.36
21433;BME280;18592;49.708;10.900;2022-08-19T03:46:40;98029.69;;;25.45;50.99
21433;BME280;18592;49.708;10.900;2022-08-19T03:48:44;98030.50;;;25.46;51.12
21433;BME280;18592;49.708;10.900;2022-08-19T03:50:46;98022.47;;;25.44;51.28
21433;BME280;18592;49.708;10.900;2022-08-19T03:52:49;98015.25;;;25.43;51.11
21433;BME280;18592;49.708;10.900;2022-08-19T03:54:52;98020.84;;;25.43;51.11
21433;BME280;18592;49.708;10.900;2022-08-19T03:56:55;98024.44;;;25.44;51.35
21433;BME280;18592;49.708;10.900;2022-08-19T03:58:58;98025.59;;;25.43;51.32
21433;BME280;18592;49.708;10.900;2022-08-19T04:01:00;98029.59;;;25.42;51.46
21433;BME280;18592;49.708;10.900;2022-08-19T04:03:02;98028.41;;;25.43;51.50
21433;BME280;18592;49.708;10.900;2022-08-19T04:05:04;98022.38;;;25.41;51.33
21433;BME280;18592;49.708;10.900;2022-08-19T04:07:08;98017.59;;;25.41;51.51
21433;BME280;18592;49.708;10.900;2022-08-19T04:09:11;98011.22;;;25.41;51.48
21433;BME280;18592;49.708;10.900;2022-08-19T04:11:23;98006.00;;;25.39;51.31
21433;BME280;18592;49.708;10.900;2022-08-19T04:13:44;98007.16;;;25.38;51.65
21433;BME280;18592;49.708;10.900;2022-08-19T04:15:46;98015.53;;;25.38;51.63
21433;BME280;18592;49.708;10.900;2022-08-19T04:17:48;98011.16;;;25.37;51.53
21433;BME280;18592;49.708;10.900;2022-08-19T04:19:49;98016.72;;;25.37;51.51
21433;BME280;18592;49.708;10.900;2022-08-19T04:21:53;98016.72;;;25.37;51.32
21433;BME280;18592;49.708;10.900;2022-08-19T04:23:56;98004.75;;;25.37;51.34
21433;BME280;18592;49.708;10.900;2022-08-19T04:25:58;98020.66;;;25.36;51.72
21433;BME280;18592;49.708;10.900;2022-08-19T04:28:00;98024.63;;;25.35;51.49
21433;BME280;18592;49.708;10.900;2022-08-19T04:30:03;98023.84;;;25.35;51.49
21433;BME280;18592;49.708;10.900;2022-08-19T04:32:05;98027.78;;;25.34;51.62
21433;BME280;18592;49.708;10.900;2022-08-19T04:34:11;98030.94;;;25.32;51.50
21433;BME280;18592;49.708;10.900;2022-08-19T04:36:21;98032.09;;;25.31;51.83
21433;BME280;18592;49.708;10.900;2022-08-19T04:38:23;98038.06;;;25.30;51.65
21433;BME280;18592;49.708;10.900;2022-08-19T04:40:25;98044.78;;;25.29;51.63
21433;BME280;18592;49.708;10.900;2022-08-19T04:42:45;98051.53;;;25.27;51.91
21433;BME280;18592;49.708;10.900;2022-08-19T04:44:47;98045.16;;;25.27;51.59
21433;BME280;18592;49.708;10.900;2022-08-19T04:46:50;98043.53;;;25.26;51.50
21433;BME280;18592;49.708;10.900;2022-08-19T04:48:52;98047.47;;;25.25;51.77
21433;BME280;18592;49.708;10.900;2022-08-19T04:50:56;98051.47;;;25.24;51.90
21433;BME280;18592;49.708;10.900;2022-08-19T04:53:01;98059.00;;;25.23;51.62
21433;BME280;18592;49.708;10.900;2022-08-19T04:55:03;98062.19;;;25.22;51.82
21433;BME280;18592;49.708;10.900;2022-08-19T04:57:08;98058.19;;;25.23;52.23
21433;BME280;18592;49.708;10.900;2022-08-19T04:59:11;98066.13;;;25.21;51.72
21433;BME280;18592;49.708;10.900;2022-08-19T05:01:19;98074.06;;;25.19;52.11
21433;BME280;18592;49.708;10.900;2022-08-19T05:03:21;98083.22;;;25.19;51.94
21433;BME280;18592;49.708;10.900;2022-08-19T05:05:23;98087.19;;;25.18;51.87
21433;BME280;18592;49.708;10.900;2022-08-19T05:07:24;98091.13;;;25.17;51.96
21433;BME280;18592;49.708;10.900;2022-08-19T05:09:27;98090.78;;;25.19;52.17
21433;BME280;18592;49.708;10.900;2022-08-19T05:11:49;98090.34;;;25.17;51.99
21433;BME280;18592;49.708;10.900;2022-08-19T05:13:54;98099.06;;;25.15;51.78
21433;BME280;18592;49.708;10.900;2022-08-19T05:15:58;98103.47;;;25.16;52.16
21433;BME280;18592;49.708;10.900;2022-08-19T05:18:00;98104.63;;;25.15;51.96
21433;BME280;18592;49.708;10.900;2022-08-19T05:20:21;98103.81;;;25.15;52.35
21433;BME280;18592;49.708;10.900;2022-08-19T05:22:45;98101.41;;;25.13;52.43
21433;BME280;18592;49.708;10.900;2022-08-19T05:24:47;98106.97;;;25.13;52.19
21433;BME280;18592;49.708;10.900;2022-08-19T05:27:10;98114.06;;;25.11;52.04
21433;BME280;18592;49.708;10.900;2022-08-19T05:29:13;98119.28;;;25.12;52.09
21433;BME280;18592;49.708;10.900;2022-08-19T05:31:16;98117.31;;;25.13;52.26
21433;BME280;18592;49.708;10.900;2022-08-19T05:33:18;98116.88;;;25.11;51.86
21433;BME280;18592;49.708;10.900;2022-08-19T05:35:19;98117.31;;;25.13;51.86
21433;BME280;18592;49.708;10.900;2022-08-19T05:37:22;98123.25;;;25.11;51.94
21433;BME280;18592;49.708;10.900;2022-08-19T05:39:27;98129.66;;;25.12;51.89
21433;BME280;18592;49.708;10.900;2022-08-19T05:41:29;98131.63;;;25.11;52.16
21433;BME280;18592;49.708;10.900;2022-08-19T05:43:32;98137.22;;;25.11;51.81
21433;BME280;18592;49.708;10.900;2022-08-19T05:45:38;98144.75;;;25.11;51.97
21433;BME280;18592;49.708;10.900;2022-08-19T05:47:40;98139.19;;;25.11;52.31
21433;BME280;18592;49.708;10.900;2022-08-19T05:49:42;98135.25;;;25.12;52.22
21433;BME280;18592;49.708;10.900;2022-08-19T05:51:44;98143.59;;;25.12;52.02
21433;BME280;18592;49.708;10.900;2022-08-19T05:53:46;98140.81;;;25.12;52.10
21433;BME280;18592;49.708;10.900;2022-08-19T05:55:47;98148.38;;;25.11;52.00
21433;BME280;18592;49.708;10.900;2022-08-19T05:57:49;98147.56;;;25.11;51.74
21433;BME280;18592;49.708;10.900;2022-08-19T05:59:51;98140.00;;;25.11;52.46
21433;BME280;18592;49.708;10.900;2022-08-19T06:01:59;98135.56;;;25.10;51.90
21433;BME280;18592;49.708;10.900;2022-08-19T06:04:03;98141.97;;;25.11;52.29
21433;BME280;18592;49.708;10.900;2022-08-19T06:06:07;98141.97;;;25.11;52.00
21433;BME280;18592;49.708;10.900;2022-08-19T06:08:10;98146.41;;;25.12;52.09
21433;BME280;18592;49.708;10.900;2022-08-19T06:10:12;98148.38;;;25.11;52.06
21433;BME280;18592;49.708;10.900;2022-08-19T06:12:14;98143.59;;;25.12;52.21
21433;BME280;18592;49.708;10.900;2022-08-19T06:14:18;98144.75;;;25.11;52.26
21433;BME280;18592;49.708;10.900;2022-08-19T06:16:28;98145.22;;;25.13;51.75
21433;BME280;18592;49.708;10.900;2022-08-19T06:18:32;98143.59;;;25.12;52.29
21433;BME280;18592;49.708;10.900;2022-08-19T06:20:34;98134.06;;;25.13;51.88
21433;BME280;18592;49.708;10.900;2022-08-19T06:22:56;98142.88;;;25.15;52.14
21433;BME280;18592;49.708;10.900;2022-08-19T06:24:57;98136.50;;;25.14;52.33
21433;BME280;18592;49.708;10.900;2022-08-19T06:26:59;98135.69;;;25.14;52.22
21433;BME280;18592;49.708;10.900;2022-08-19T06:29:03;98138.09;;;25.15;52.33
21433;BME280;18592;49.708;10.900;2022-08-19T06:31:07;98133.34;;;25.16;52.21
21433;BME280;18592;49.708;10.900;2022-08-19T06:33:09;98136.59;;;25.18;52.60
21433;BME280;18592;49.708;10.900;2022-08-19T06:35:10;98122.28;;;25.19;52.58
21433;BME280;18592;49.708;10.900;2022-08-19T06:37:13;98137.50;;;25.22;52.39
21433;BME280;18592;49.708;10.900;2022-08-19T06:39:23;98131.94;;;25.22;52.69
21433;BME280;18592;49.708;10.900;2022-08-19T06:41:26;98141.56;;;25.24;52.28
21433;BME280;18592;49.708;10.900;2022-08-19T06:43:28;98137.25;;;25.27;52.10
21433;BME280;18592;49.708;10.900;2022-08-19T06:45:29;98132.13;;;25.29;52.26
21433;BME280;18592;49.708;10.900;2022-08-19T06:47:36;98130.94;;;25.30;52.51
21433;BME280;18592;49.708;10.900;2022-08-19T06:49:38;98133.00;;;25.33;52.45
21433;BME280;18592;49.708;10.900;2022-08-19T06:51:45;98134.28;;;25.36;52.75
21433;BME280;18592;49.708;10.900;2022-08-19T06:53:51;98136.34;;;25.39;52.12
21433;BME280;18592;49.708;10.900;2022-08-19T06:55:53;98144.47;;;25.44;52.39
21433;BME280;18592;49.708;10.900;2022-08-19T06:58:02;98147.72;;;25.46;52.20
21433;BME280;18592;49.708;10.900;2022-08-19T07:00:05;98147.84;;;25.49;52.23
21433;BME280;18592;49.708;10.900;2022-08-19T07:02:13;98150.25;;;25.51;52.61
21433;BME280;18592;49.708;10.900;2022-08-19T07:04:19;98155.13;;;25.54;52.81
21433;BME280;18592;49.708;10.900;2022-08-19T07:06:21;98147.19;;;25.56;52.51
21433;BME280;18592;49.708;10.900;2022-08-19T07:08:44;98150.81;;;25.56;52.64
21433;BME280;18592;49.708;10.900;2022-08-19T07:10:47;98154.03;;;25.58;52.41
21433;BME280;18592;49.708;10.900;2022-08-19T07:12:50;98154.50;;;25.60;52.53
21433;BME280;18592;49.708;10.900;2022-08-19T07:14:52;98149.38;;;25.62;52.31
21433;BME280;18592;49.708;10.900;2022-08-19T07:16:56;98159.38;;;25.63;52.34
21433;BME280;18592;49.708;10.900;2022-08-19T07:18:58;98165.41;;;25.65;52.16
21433;BME280;18592;49.708;10.900;2022-08-19T07:21:15;98169.81;;;25.66;52.22
21433;BME280;18592;49.708;10.900;2022-08-19T07:23:17;98174.25;;;25.67;52.18
21433;BME280;18592;49.708;10.900;2022-08-19T07:25:19;98173.88;;;25.69;52.01
21433;BME280;18592;49.708;10.900;2022-08-19T07:27:32;98182.63;;;25.67;52.37
21433;BME280;18592;49.708;10.900;2022-08-19T07:29:35;98182.63;;;25.67;52.28
21433;BME280;18592;49.708;10.900;2022-08-19T07:31:38;98178.66;;;25.68;52.20
21433;BME280;18592;49.708;10.900;2022-08-19T07:33:40;98184.22;;;25.68;52.05
21433;BME280;18592;49.708;10.900;2022-08-19T07:35:44;98185.03;;;25.69;52.54
21433;BME280;18592;49.708;10.900;2022-08-19T07:37:46;98190.25;;;25.70;52.10
21433;BME280;18592;49.708;10.900;2022-08-19T07:39:47;98184.22;;;25.68;51.92
21433;BME280;18592;49.708;10.900;2022-08-19T07:41:49;98189.00;;;25.68;52.25
21433;BME280;18592;49.708;10.900;2022-08-19T07:43:52;98191.00;;;25.67;51.89
21433;BME280;18592;49.708;10.900;2022-08-19T07:45:55;98183.78;;;25.66;51.90
21433;BME280;18592;49.708;10.900;2022-08-19T07:47:58;98190.53;;;25.65;52.09
21433;BME280;18592;49.708;10.900;2022-08-19T07:50:01;98186.13;;;25.64;52.19
21433;BME280;18592;49.708;10.900;2022-08-19T07:52:09;98182.16;;;25.65;51.85
21433;BME280;18592;49.708;10.900;2022-08-19T07:54:11;98189.38;;;25.66;52.20
21433;BME280;18592;49.708;10.900;2022-08-19T07:56:14;98188.91;;;25.64;51.88
21433;BME280;18592;49.708;10.900;2022-08-19T07:58:18;98196.09;;;25.65;52.27
21433;BME280;18592;49.708;10.900;2022-08-19T08:00:20;98193.31;;;25.65;51.94
21433;BME280;18592;49.708;10.900;2022-08-19T08:02:25;98200.91;;;25.65;51.97
21433;BME280;18592;49.708;10.900;2022-08-19T08:04:27;98190.53;;;25.65;52.07
21433;BME280;18592;49.708;10.900;2022-08-19T08:06:48;98192.16;;;25.66;51.99
21433;BME280;18592;49.708;10.900;2022-08-19T08:09:09;98192.97;;;25.67;52.20
21433;BME280;18592;49.708;10.900;2022-08-19T08:11:19;98186.19;;;25.68;52.32
21433;BME280;18592;49.708;10.900;2022-08-19T08:13:21;98184.22;;;25.68;52.30
21433;BME280;18592;49.708;10.900;2022-08-19T08:15:23;98186.69;;;25.70;52.26
21433;BME280;18592;49.708;10.900;2022-08-19T08:17:26;98184.34;;;25.72;52.01
21433;BME280;18592;49.708;10.900;2022-08-19T08:19:48;98183.16;;;25.73;51.94
21433;BME280;18592;49.708;10.900;2022-08-19T08:21:57;98191.63;;;25.76;51.80
21433;BME280;18592;49.708;10.900;2022-08-19T08:23:59;98192.06;;;25.78;52.15
21433;BME280;18592;49.708;10.900;2022-08-19T08:26:05;98184.97;;;25.81;51.74
21433;BME280;18592;49.708;10.900;2022-08-19T08:28:07;98183.91;;;25.85;52.00
21433;BME280;18592;49.708;10.900;2022-08-19T08:30:22;98177.94;;;25.87;52.14
21433;BME280;18592;49.708;10.900;2022-08-19T08:32:24;98188.75;;;25.88;52.27
21433;BME280;18592;49.708;10.900;2022-08-19T08:34:26;98181.19;;;25.89;51.99
21433;BME280;18592;49.708;10.900;2022-08-19T08:36:28;98188.03;;;25.92;51.67
21433;BME280;18592;49.708;10.900;2022-08-19T08:38:31;98190.47;;;25.93;52.02
21433;BME280;18592;49.708;10.900;2022-08-19T08:40:57;98186.16;;;25.96;52.19
21433;BME280;18592;49.708;10.900;2022-08-19T08:43:27;98181.00;;;25.98;52.18
21433;BME280;18592;49.708;10.900;2022-08-19T08:45:36;98165.50;;;26.00;51.57
21433;BME280;18592;49.708;10.900;2022-08-19T08:47:45;98173.19;;;26.03;51.99
21433;BME280;18592;49.708;10.900;2022-08-19T08:49:51;98175.22;;;26.06;51.94
21433;BME280;18592;49.708;10.900;2022-08-19T08:52:49;98172.91;;;26.08;51.88
21433;BME280;18592;49.708;10.900;2022-08-19T08:54:38;98177.75;;;26.11;52.05
21433;BME280;18592;49.708;10.900;2022-08-19T08:56:51;98163.91;;;26.15;51.68
21433;BME280;18592;49.708;10.900;2022-08-19T08:59:01;98163.19;;;26.18;51.75
21433;BME280;18592;49.708;10.900;2022-08-19T09:01:10;98160.09;;;26.23;52.04
21433;BME280;18592;49.708;10.900;2022-08-19T09:03:22;98160.97;;;26.27;51.68
21433;BME280;18592;49.708;10.900;2022-08-19T09:05:32;98167.00;;;26.29;52.16
21433;BME280;18592;49.708;10.900;2022-08-19T09:08:00;98171.53;;;26.33;51.61
21433;BME280;18592;49.708;10.900;2022-08-19T09:10:17;98166.00;;;26.37;51.78
21433;BME280;18592;49.708;10.900;2022-08-19T09:12:58;98167.66;;;26.38;51.91
21433;BME280;18592;49.708;10.900;2022-08-19T09:15:12;98170.16;;;26.43;51.62
21433;BME280;18592;49.708;10.900;2022-08-19T09:17:15;98172.66;;;26.48;51.70
21433;BME280;18592;49.708;10.900;2022-08-19T09:19:16;98171.13;;;26.51;51.66
21433;BME280;18592;49.708;10.900;2022-08-19T09:21:23;98172.38;;;26.53;51.76
21433;BME280;18592;49.708;10.900;2022-08-19T09:23:35;98171.28;;;26.58;51.64
21433;BME280;18592;49.708;10.900;2022-08-19T09:25:36;98177.75;;;26.62;51.38
21433;BME280;18592;49.708;10.900;2022-08-19T09:27:41;98175.44;;;26.64;51.46
21433;BME280;18592;49.708;10.900;2022-08-19T09:29:44;98173.06;;;26.66;51.62
21433;BME280;18592;49.708;10.900;2022-08-19T09:31:47;98182.72;;;26.68;51.47
21433;BME280;18592;49.708;10.900;2022-08-19T09:33:49;98181.16;;;26.71;51.52
21433;BME280;18592;49.708;10.900;2022-08-19T09:36:05;98189.19;;;26.72;51.21
21433;BME280;18592;49.708;10.900;2022-08-19T09:38:09;98182.03;;;26.75;51.21
21433;BME280;18592;49.708;10.900;2022-08-19T09:40:12;98180.53;;;26.77;51.04
21433;BME280;18592;49.708;10.900;2022-08-19T09:42:13;98178.56;;;26.78;50.85
21433;BME280;18592;49.708;10.900;2022-08-19T09:44:30;98177.38;;;26.79;51.26
21433;BME280;18592;49.708;10.900;2022-08-19T09:46:31;98185.41;;;26.80;50.87
21433;BME280;18592;49.708;10.900;2022-08-19T09:48:33;98183.88;;;26.83;51.12
21433;BME280;18592;49.708;10.900;2022-08-19T09:50:35;98190.31;;;26.87;50.78
21433;BME280;18592;49.708;10.900;2022-08-19T09:52:52;98189.16;;;26.88;51.09
21433;BME280;18592;49.708;10.900;2022-08-19T09:54:58;98182.03;;;26.90;51.26
21433;BME280;18592;49.708;10.900;2022-08-19T09:57:00;98183.28;;;26.93;51.11
21433;BME280;18592;49.708;10.900;2022-08-19T09:59:07;98188.50;;;26.94;50.75
21433;BME280;18592;49.708;10.900;2022-08-19T10:01:20;98190.56;;;26.97;50.80
21433;BME280;18592;49.708;10.900;2022-08-19T10:03:22;98183.41;;;27.00;50.87
21433;BME280;18592;49.708;10.900;2022-08-19T10:05:30;98179.06;;;27.02;50.63
21433;BME280;18592;49.708;10.900;2022-08-19T10:07:50;98183.50;;;27.03;51.00
21433;BME280;18592;49.708;10.900;2022-08-19T10:09:52;98182.78;;;27.06;50.97
21433;BME280;18592;49.708;10.900;2022-08-19T10:11:54;98181.22;;;27.09;51.06
21433;BME280;18592;49.708;10.900;2022-08-19T10:13:55;98174.53;;;27.14;50.70
21433;BME280;18592;49.708;10.900;2022-08-19T10:16:07;98174.97;;;27.16;51.12
21433;BME280;18592;49.708;10.900;2022-08-19T10:18:10;98176.28;;;27.22;51.04
21433;BME280;18592;49.708;10.900;2022-08-19T10:20:12;98174.00;;;27.27;50.70
21433;BME280;18592;49.708;10.900;2022-08-19T10:22:14;98162.50;;;27.32;51.02
21433;BME280;18592;49.708;10.900;2022-08-19T10:24:16;98172.59;;;27.37;50.86
21433;BME280;18592;49.708;10.900;2022-08-19T10:26:22;98175.94;;;27.42;51.10
21433;BME280;18592;49.708;10.900;2022-08-19T10:28:26;98184.47;;;27.49;50.92
21433;BME280;18592;49.708;10.900;2022-08-19T10:30:30;98182.16;;;27.55;50.81
21433;BME280;18592;49.708;10.900;2022-08-19T10:32:32;98173.81;;;27.58;51.05
21433;BME280;18592;49.708;10.900;2022-08-19T10:34:36;98172.25;;;27.61;50.86
21433;BME280;18592;49.708;10.900;2022-08-19T10:36:48;98183.16;;;27.66;50.49
21433;BME280;18592;49.708;10.900;2022-08-19T10:39:07;98180.00;;;27.67;50.62
21433;BME280;18592;49.708;10.900;2022-08-19T10:41:12;98188.84;;;27.69;50.56
21433;BME280;18592;49.708;10.900;2022-08-19T10:43:14;98194.06;;;27.71;50.45
21433;BME280;18592;49.708;10.900;2022-08-19T10:45:17;98194.06;;;27.71;50.45
21433;BME280;18592;49.708;10.900;2022-08-19T10:47:21;98186.09;;;27.73;50.41
21433;BME280;18592;49.708;10.900;2022-08-19T10:49:26;98188.09;;;27.73;49.99
21433;BME280;18592;49.708;10.900;2022-08-19T10:51:28;98183.28;;;27.73;50.25
21433;BME280;18592;49.708;10.900;2022-08-19T10:53:50;98184.06;;;27.70;50.06
21433;BME280;18592;49.708;10.900;2022-08-19T10:55:52;98188.44;;;27.71;50.13